createdAt,value
2019-03-31T00:00:28.731Z,100823.08
2019-03-31T00:05:40.410Z,100819.55
2019-03-31T00:10:43.154Z,100818.38
2019-03-31T00:15:45.923Z,100824.07
2019-03-31T00:20:48.714Z,100816.45
2019-03-31T00:25:51.854Z,100814.46
2019-03-31T00:30:55.432Z,100825.75
2019-03-31T00:35:58.110Z,100816.09
2019-03-31T00:41:00.714Z,100814.62
2019-03-31T00:46:03.354Z,100813.67
2019-03-31T00:51:06.122Z,100821.71
2019-03-31T00:56:08.753Z,100828.14
2019-03-31T01:01:46.536Z,100826.71
2019-03-31T01:06:53.400Z,100820.36
2019-03-31T01:11:56.121Z,100816.29
2019-03-31T01:16:59.894Z,100810.41
2019-03-31T01:22:02.603Z,100807.73
2019-03-31T01:27:08.973Z,100816.09
2019-03-31T01:32:11.661Z,100818.94
2019-03-31T01:37:15.277Z,100812.03
2019-03-31T01:42:18.083Z,100823.02
2019-03-31T01:47:21.029Z,100817.28
2019-03-31T01:52:23.737Z,100825.25
2019-03-31T01:57:26.364Z,100816.53
2019-03-31T02:02:29.571Z,100820.92
2019-03-31T02:07:32.183Z,100821.47
2019-03-31T02:12:35.124Z,100827.98
2019-03-31T02:17:37.758Z,100834.78
2019-03-31T02:22:40.386Z,100836.78
2019-03-31T02:27:43.139Z,100838.97
2019-03-31T02:32:45.902Z,100831.55
2019-03-31T02:37:48.589Z,100831.55
2019-03-31T02:42:51.414Z,100833.77
2019-03-31T02:47:54.068Z,100829.66
2019-03-31T02:52:56.825Z,100823.78
2019-03-31T02:58:00.744Z,100822.34
2019-03-31T03:03:03.769Z,100829.92
2019-03-31T03:08:09.555Z,100811.71
2019-03-31T03:13:13.891Z,100829.06
2019-03-31T03:18:16.553Z,100823.30
2019-03-31T03:23:19.260Z,100820.61
2019-03-31T03:28:21.941Z,100819.19
2019-03-31T03:33:24.666Z,100821.30
2019-03-31T03:38:27.334Z,100827.34
2019-03-31T03:43:29.947Z,100823.41
2019-03-31T03:48:32.888Z,100824.84
2019-03-31T03:53:35.547Z,100819.43
2019-03-31T03:58:38.234Z,100821.02
2019-03-31T04:03:40.918Z,100824.49
2019-03-31T04:08:43.719Z,100828.28
2019-03-31T04:13:46.500Z,100823.91
2019-03-31T04:18:49.208Z,100823.91
2019-03-31T04:23:51.823Z,100835.24
2019-03-31T04:28:54.488Z,100831.13
2019-03-31T04:33:57.121Z,100831.13
2019-03-31T04:39:00.528Z,100836.31
2019-03-31T04:44:03.514Z,100843.48
2019-03-31T04:49:06.146Z,100843.55
2019-03-31T04:54:08.815Z,100842.78
2019-03-31T04:59:11.499Z,100842.78
2019-03-31T05:04:14.213Z,100861.84
2019-03-31T05:09:16.921Z,100861.84
2019-03-31T05:14:19.707Z,100870.97
2019-03-31T05:19:22.348Z,100865.50
2019-03-31T05:24:25.003Z,100863.53
2019-03-31T05:29:27.757Z,100863.46
2019-03-31T05:34:30.508Z,100866.03
2019-03-31T05:39:33.169Z,100870.33
2019-03-31T05:44:35.773Z,100879.39
2019-03-31T05:49:38.416Z,100882.19
2019-03-31T05:54:41.048Z,100886.08
2019-03-31T05:59:43.785Z,100885.63
2019-03-31T06:04:46.437Z,100885.63
2019-03-31T06:09:49.078Z,100871.09
2019-03-31T06:14:51.736Z,100871.09
2019-03-31T06:19:54.413Z,100874.75
2019-03-31T06:24:57.109Z,100878.42
2019-03-31T06:29:59.760Z,100886.84
2019-03-31T06:35:02.607Z,100886.84
2019-03-31T06:40:05.407Z,100887.52
2019-03-31T06:45:08.389Z,100884.95
2019-03-31T06:50:11.094Z,100883.19
2019-03-31T06:55:14.081Z,100896.29
2019-03-31T07:00:17.275Z,100895.20
2019-03-31T07:05:19.909Z,100901.33
2019-03-31T07:10:22.580Z,100899.18
2019-03-31T07:15:25.292Z,100910.07
2019-03-31T07:20:28.030Z,100910.07
2019-03-31T07:25:30.715Z,100904.41
2019-03-31T07:30:33.977Z,100904.41
2019-03-31T07:35:38.986Z,100901.67
2019-03-31T07:40:41.217Z,100903.39
2019-03-31T07:45:43.868Z,100917.09
2019-03-31T07:50:46.585Z,100899.56
2019-03-31T07:55:49.313Z,100911.23
2019-03-31T08:00:51.952Z,100919.92
2019-03-31T08:05:54.697Z,100919.88
2019-03-31T08:10:57.447Z,100920.64
2019-03-31T08:16:00.264Z,100923.08
2019-03-31T08:21:06.056Z,100928.55
2019-03-31T08:26:08.868Z,100929.35
2019-03-31T08:31:11.722Z,100934.30
2019-03-31T08:36:14.511Z,100933.77
2019-03-31T08:41:17.238Z,100935.63
2019-03-31T08:46:19.938Z,100937.34
2019-03-31T08:51:22.603Z,100936.39
2019-03-31T08:56:25.212Z,100936.24
2019-03-31T09:01:27.824Z,100940.02
2019-03-31T09:06:30.472Z,100917.94
2019-03-31T09:11:33.320Z,100933.38
2019-03-31T09:16:35.937Z,100934.98
2019-03-31T09:21:38.557Z,100936.55
2019-03-31T09:26:41.190Z,100936.22
2019-03-31T09:31:43.794Z,100940.80
2019-03-31T09:36:46.412Z,100936.73
2019-03-31T09:41:49.033Z,100938.95
2019-03-31T09:46:51.708Z,100932.53
2019-03-31T09:51:54.350Z,100929.09
2019-03-31T09:56:56.945Z,100924.92
2019-03-31T10:01:59.596Z,100925.05
2019-03-31T10:07:02.158Z,100916.77
2019-03-31T10:12:04.754Z,100922.29
2019-03-31T10:17:07.743Z,100914.23
2019-03-31T10:22:10.713Z,100914.80
2019-03-31T10:27:13.340Z,100914.95
2019-03-31T10:32:15.983Z,100913.12
2019-03-31T10:37:25.872Z,100908.89
2019-03-31T10:42:28.944Z,100906.67
2019-03-31T10:47:36.222Z,100903.05
2019-03-31T10:52:39.294Z,100891.58
2019-03-31T10:57:42.266Z,100892.11
2019-03-31T11:02:44.964Z,100887.29
2019-03-31T11:07:47.593Z,100889.07
2019-03-31T11:12:50.867Z,100891.27
2019-03-31T11:17:53.656Z,100889.62
2019-03-31T11:23:03.374Z,100892.88
2019-03-31T11:28:05.957Z,100890.98
2019-03-31T11:33:08.562Z,100889.84
2019-03-31T11:38:11.150Z,100881.28
2019-03-31T11:43:13.749Z,100881.27
2019-03-31T11:48:16.388Z,100880.70
2019-03-31T11:53:19.179Z,100877.58
2019-03-31T11:58:21.773Z,100874.90
2019-03-31T12:03:25.385Z,100866.23
2019-03-31T12:08:28.251Z,100862.81
2019-03-31T12:13:31.154Z,100865.03
2019-03-31T12:18:33.838Z,100858.77
2019-03-31T12:23:36.654Z,100855.59
2019-03-31T12:28:39.517Z,100855.97
2019-03-31T12:33:42.199Z,100842.05
2019-03-31T12:38:44.935Z,100850.56
2019-03-31T12:43:47.501Z,100842.52
2019-03-31T12:48:50.570Z,100831.34
2019-03-31T12:53:53.827Z,100822.89
2019-03-31T12:58:56.487Z,100819.58
2019-03-31T13:03:59.211Z,100809.88
2019-03-31T13:09:02.103Z,100809.14
2019-03-31T13:14:04.850Z,100800.42
2019-03-31T13:19:08.042Z,100800.13
2019-03-31T13:24:10.651Z,100786.29
2019-03-31T13:29:13.265Z,100793.98
2019-03-31T13:34:15.874Z,100788.50
2019-03-31T13:39:18.492Z,100779.46
2019-03-31T13:44:21.480Z,100777.06
2019-03-31T13:49:24.065Z,100781.25
2019-03-31T13:54:26.805Z,100773.42
2019-03-31T13:59:29.546Z,100767.55
2019-03-31T14:04:35.425Z,100758.13
2019-03-31T14:09:36.767Z,100760.92
2019-03-31T14:14:39.367Z,100758.97
2019-03-31T14:19:42.053Z,100752.16
2019-03-31T14:24:44.766Z,100746.45
2019-03-31T14:29:47.485Z,100750.31
2019-03-31T14:34:50.844Z,100756.81
2019-03-31T14:39:53.590Z,100755.45
2019-03-31T14:44:56.242Z,100757.70
2019-03-31T14:49:58.917Z,100758.05
2019-03-31T14:55:01.622Z,100767.03
2019-03-31T15:00:14.629Z,100754.05
2019-03-31T15:05:10.240Z,100762.22
2019-03-31T15:10:12.940Z,100769.55
2019-03-31T15:15:15.864Z,100781.31
2019-03-31T15:20:18.501Z,100782.48
2019-03-31T15:25:21.162Z,100786.33
2019-03-31T15:30:23.853Z,100805.02
2019-03-31T15:35:26.589Z,100795.50
2019-03-31T15:40:29.247Z,100791.14
2019-03-31T15:45:31.896Z,100794.98
2019-03-31T15:50:34.578Z,100801.02
2019-03-31T15:55:37.280Z,100804.58
2019-03-31T16:00:39.891Z,100806.64
2019-03-31T16:05:42.531Z,100799.84
2019-03-31T16:10:44.685Z,100808.39
2019-03-31T16:15:46.784Z,100805.93
2019-03-31T16:20:48.875Z,100813.23
2019-03-31T16:25:54.077Z,100822.11
2019-03-31T16:30:56.140Z,100815.44
2019-03-31T16:35:58.228Z,100820.80
2019-03-31T16:41:00.280Z,100828.27
2019-03-31T16:46:02.410Z,100827.11
2019-03-31T16:51:04.452Z,100824.84
2019-03-31T16:56:06.660Z,100822.25
2019-03-31T17:01:08.707Z,100829.31
2019-03-31T17:06:10.796Z,100835.07
2019-03-31T17:11:12.844Z,100840.92
2019-03-31T17:16:15.636Z,100845.69
2019-03-31T17:21:18.775Z,100852.95
2019-03-31T17:26:20.960Z,100860.84
2019-03-31T17:31:23.047Z,100867.60
2019-03-31T17:36:25.090Z,100864.59
2019-03-31T17:41:27.150Z,100868.08
2019-03-31T17:46:29.286Z,100880.09
2019-03-31T17:51:31.355Z,100882.17
2019-03-31T17:56:33.526Z,100889.75
2019-03-31T18:01:35.518Z,100886.20
2019-03-31T18:06:37.582Z,100896.22
2019-03-31T18:11:39.665Z,100902.76
2019-03-31T18:16:41.759Z,100916.64
2019-03-31T18:21:43.851Z,100918.37
2019-03-31T18:26:46.964Z,100928.58
2019-03-31T18:31:49.061Z,100922.70
2019-03-31T18:36:51.235Z,100933.95
2019-03-31T18:41:53.360Z,100929.05
2019-03-31T18:46:55.516Z,100944.27
2019-03-31T18:51:57.728Z,100956.27
2019-03-31T18:57:11.689Z,100960.44
2019-03-31T19:02:42.457Z,100973.36
2019-03-31T19:08:03.053Z,100960.72
2019-03-31T19:13:27.342Z,100969.00
2019-03-31T19:18:58.072Z,100975.98
2019-03-31T19:24:05.926Z,100988.14
2019-03-31T19:29:30.453Z,100993.00
2019-03-31T19:34:45.248Z,100993.56
2019-03-31T19:40:16.901Z,100998.12
2019-03-31T19:45:43.483Z,101010.08
2019-03-31T19:51:04.032Z,101013.64
2019-03-31T19:56:26.020Z,101024.20
2019-03-31T20:02:10.422Z,101031.52
2019-03-31T20:07:41.265Z,101029.28
2019-03-31T20:13:16.926Z,101021.80
2019-03-31T20:18:45.129Z,101039.63
2019-03-31T20:24:18.723Z,101037.05
2019-03-31T20:29:27.495Z,101048.44
2019-03-31T20:34:35.098Z,101046.84
2019-03-31T20:39:56.660Z,101049.62
2019-03-31T20:44:50.176Z,101059.45
2019-03-31T20:49:52.341Z,101058.48
2019-03-31T20:54:54.912Z,101056.09
2019-03-31T20:59:56.965Z,101065.49
2019-03-31T21:04:59.065Z,101069.91
2019-03-31T21:10:01.167Z,101066.13
2019-03-31T21:15:03.885Z,101069.82
2019-03-31T21:20:06.175Z,101073.70
2019-03-31T21:25:08.493Z,101074.75
2019-03-31T21:30:10.714Z,101067.95
2019-03-31T21:35:12.780Z,101076.47
2019-03-31T21:40:14.818Z,101076.47
2019-03-31T21:45:16.898Z,101073.36
2019-03-31T21:50:18.946Z,101073.36
2019-03-31T21:55:21.053Z,101082.23
2019-03-31T22:00:42.719Z,101079.60
2019-03-31T22:05:44.741Z,101083.78
2019-03-31T22:10:47.449Z,101089.84
2019-03-31T22:15:49.570Z,101084.70
2019-03-31T22:20:51.673Z,101090.48
2019-03-31T22:25:53.723Z,101087.76
2019-03-31T22:30:55.829Z,101076.94
2019-03-31T22:36:16.496Z,101076.94
2019-03-31T22:41:18.706Z,101072.62
2019-03-31T22:46:20.747Z,101084.14
2019-03-31T22:51:22.819Z,101084.14
2019-03-31T22:56:24.818Z,101072.88
2019-03-31T23:01:26.848Z,101066.53
2019-03-31T23:06:28.880Z,101071.48
2019-03-31T23:11:30.936Z,101067.80
2019-03-31T23:16:33.015Z,101062.09
2019-03-31T23:21:35.076Z,101056.96
2019-03-31T23:26:37.183Z,101058.53
2019-03-31T23:31:39.291Z,101051.41
2019-03-31T23:36:41.435Z,101051.41
2019-03-31T23:41:43.629Z,101054.32
2019-03-31T23:46:45.970Z,101051.20
2019-03-31T23:51:48.077Z,101053.09
2019-03-31T23:56:50.183Z,101049.24
